Lakeview, North Carolina
Current Conditions -  °F | °C
As of 12:55 AM on Sunday 23 Nov 2014 (Local Time) from KSOP Reporting Station
Broken Clouds Broken Clouds  
Wind Chill: 36°   Ceiling: 1100
Heat Index: 36°   Visibility: 1.7mi
Dew Point: 27°   Wind: 0mph
Humidity: 70%   Direction: NA
Pressure: 30.3"   Gusts: NA
Location:  35.24°N, 79.31°W
Report Text: KSOP 230555Z AUTO 00000KT 1 3/4SM BKN011 02/M03 A3030 RMK AO1 10040 20010 57014
Loading
Personal Weather Stations






























Interactive Weather Map New forecast layout! Learn more

10-Day Weather Forecast

Advertisements
Track Severe Weather on mobile